Terminal Aerodrome Forecast
Issued by NWS Charleston, WV

Current Version | Previous Version | Text Only | Print | Product List | Glossary Off
Versions: 1 2 3 4 5 6 7 8 9 10 11 12 13 14 15 16 17 18 19 20 21 22 23

000
FTUS41 KRLX 220200 AAA
TAFEKN
TAF AMD
KEKN 220238Z 2203/2224 22007KT P6SM SCT070
     FM221200 23011G20KT 6SM SHRA BKN040
     FM221500 26013G24KT 3SM SHRA OVC025
     FM221900 26014G26KT 6SM SHRA BKN025
     FM222300 27013G24KT P6SM BKN040=

USA.gov is the U.S. government's official web portal to all federal, state and local government web resources and services.